Time;durP1;ratioP1;P1;durP2;ratioP2;P2;SDS_P1;SDS_P2;PMS_P1;PMS_P2;Temp;Humidity;BMP_temperature;BMP_pressure;BME280_temperature;BME280_humidity;BME280_pressure;Samples;Min_cycle;Max_cycle;Signal;HPM_P1;HPM_P2
2022/08/29 21:26:16;;;;;;;4.10;2.33;;;14.70;99.90;;;;;;5847822;23;20398;-53
2022/08/29 21:28:42;;;;;;;2.23;2.00;;;14.80;99.90;;;;;;4877820;29;20856;-54
2022/08/29 21:31:11;;;;;;;3.60;2.10;;;14.80;99.90;;;;;;4879368;29;20444;-54
2022/08/29 21:33:42;;;;;;;3.43;1.90;;;14.80;99.90;;;;;;4879589;29;20205;-54
2022/08/29 21:36:17;;;;;;;4.77;1.80;;;14.80;99.90;;;;;;4879511;29;20453;-55
2022/08/29 21:38:44;;;;;;;4.07;1.63;;;14.80;99.90;;;;;;4879518;29;20409;-54
2022/08/29 21:41:12;;;;;;;3.23;1.90;;;14.80;99.90;;;;;;4879058;29;20434;-58
2022/08/29 21:43:38;;;;;;;3.53;2.17;;;14.90;99.90;;;;;;4878976;29;20837;-55
2022/08/29 21:46:25;;;;;;;2.70;1.90;;;14.90;99.90;;;;;;4878880;29;20452;-55
2022/08/29 21:48:52;;;;;;;1.83;1.60;;;14.90;99.90;;;;;;4879134;29;20420;-54
2022/08/29 21:51:20;;;;;;;2.00;1.80;;;15.00;99.90;;;;;;4879118;29;20641;-54
2022/08/29 21:53:50;;;;;;;2.70;1.80;;;15.00;99.90;;;;;;4879021;29;20476;-55
2022/08/29 21:56:16;;;;;;;2.90;2.10;;;15.00;99.90;;;;;;4879023;29;20469;-55
2022/08/29 21:58:43;;;;;;;5.70;2.00;;;15.00;99.90;;;;;;4878788;29;21041;-53
2022/08/29 22:01:10;;;;;;;3.20;1.53;;;15.10;99.90;;;;;;4879150;29;20436;-54
2022/08/29 22:03:37;;;;;;;3.37;1.47;;;15.10;99.90;;;;;;4879003;29;20911;-55
2022/08/29 22:06:04;;;;;;;3.37;2.03;;;15.20;99.90;;;;;;4878953;29;20431;-55
2022/08/29 22:08:30;;;;;;;5.03;1.90;;;15.20;93.90;;;;;;4862318;29;20889;-54
2022/08/29 22:10:55;;;;;;;2.60;1.70;;;15.20;76.60;;;;;;4878631;29;20492;-51
2022/08/29 22:13:21;;;;;;;2.10;1.60;;;15.20;46.80;;;;;;4878769;29;20209;-52
2022/08/29 22:18:31;;;;;;;2.80;1.90;;;15.30;25.80;;;;;;4878782;29;20244;-55
2022/08/29 22:20:57;;;;;;;1.73;1.30;;;15.30;13.90;;;;;;4878624;29;20421;-55
2022/08/29 22:23:23;;;;;;;2.17;1.57;;;15.30;1.00;;;;;;4878812;29;20164;-55
2022/08/29 22:25:49;;;;;;;4.53;1.57;;;15.20;1.00;;;;;;4878188;29;20465;-55
2022/08/29 22:28:16;;;;;;;2.70;1.30;;;15.20;1.00;;;;;;4879894;29;20974;-57
2022/08/29 22:30:41;;;;;;;2.83;1.70;;;15.10;1.00;;;;;;4879272;29;20444;-55
2022/08/29 22:33:07;;;;;;;3.63;1.90;;;15.00;1.00;;;;;;4879742;29;20452;-54
2022/08/29 22:35:33;;;;;;;1.93;1.50;;;14.90;1.00;;;;;;4879835;29;20208;-57
2022/08/29 22:37:58;;;;;;;2.30;1.40;;;14.80;1.00;;;;;;4879789;29;20409;-54
2022/08/29 22:40:24;;;;;;;3.53;1.60;;;14.70;19.10;;;;;;4879657;29;20165;-54
2022/08/29 22:42:51;;;;;;;3.93;1.53;;;14.70;40.90;;;;;;4879739;29;20263;-55
2022/08/29 22:45:17;;;;;;;3.33;1.63;;;14.60;93.60;;;;;;4879668;29;20520;-54
2022/08/29 22:47:45;;;;;;;2.10;1.57;;;14.60;99.90;;;;;;4879731;29;20421;-55
2022/08/29 22:50:17;;;;;;;1.63;1.27;;;14.50;99.90;;;;;;4879468;29;20467;-55
2022/08/29 22:52:44;;;;;;;4.40;1.50;;;14.40;99.90;;;;;;4879563;29;20456;-54
2022/08/29 22:55:15;;;;;;;2.97;1.90;;;14.40;99.90;;;;;;4879275;29;20553;-54
2022/08/29 22:57:44;;;;;;;2.43;1.60;;;14.30;99.90;;;;;;4879608;29;20409;-55
2022/08/29 23:00:12;;;;;;;2.80;1.77;;;14.30;99.90;;;;;;4879674;29;20413;-54
2022/08/29 23:02:38;;;;;;;4.40;1.80;;;14.30;99.90;;;;;;4879523;29;20421;-52
2022/08/29 23:05:04;;;;;;;2.20;1.70;;;14.30;99.90;;;;;;4879397;29;20959;-54
2022/08/29 23:07:30;;;;;;;7.30;2.00;;;14.20;99.90;;;;;;4879467;29;20425;-54
2022/08/29 23:09:56;;;;;;;3.73;1.90;;;14.20;99.90;;;;;;4879282;29;20521;-54
2022/08/29 23:12:21;;;;;;;3.40;1.93;;;14.20;99.90;;;;;;4879155;29;20271;-54
2022/08/29 23:14:47;;;;;;;4.73;1.80;;;14.20;99.90;;;;;;4879303;29;20523;-55
2022/08/29 23:17:14;;;;;;;5.60;2.00;;;14.30;99.90;;;;;;4878987;29;20633;-54
2022/08/29 23:19:41;;;;;;;3.63;2.00;;;14.30;99.90;;;;;;4878450;29;20176;-54
2022/08/29 23:22:08;;;;;;;3.93;1.77;;;14.30;99.90;;;;;;4862541;29;20445;-54
2022/08/29 23:24:34;;;;;;;1.50;1.40;;;14.30;99.90;;;;;;4860384;29;20406;-52
2022/08/29 23:26:59;;;;;;;3.50;2.20;;;14.30;99.90;;;;;;4860451;29;20812;-54
2022/08/29 23:29:26;;;;;;;3.77;2.17;;;14.40;99.90;;;;;;4858884;29;20686;-52
2022/08/29 23:31:52;;;;;;;2.43;1.90;;;14.40;99.90;;;;;;4859085;29;20215;-55
2022/08/29 23:34:18;;;;;;;3.47;1.53;;;14.40;99.90;;;;;;4859050;29;20505;-54
2022/08/29 23:36:43;;;;;;;3.80;1.90;;;14.40;99.90;;;;;;4859113;29;20181;-52
2022/08/29 23:39:09;;;;;;;3.37;1.50;;;14.40;99.90;;;;;;4858960;29;20173;-55
2022/08/29 23:41:35;;;;;;;4.50;1.70;;;14.40;99.90;;;;;;4859208;29;20613;-54
2022/08/29 23:44:01;;;;;;;2.30;1.80;;;14.40;99.90;;;;;;4862800;29;20219;-55
2022/08/29 23:46:28;;;;;;;10.60;2.80;;;14.40;99.90;;;;;;4862827;29;20269;-55
2022/08/29 23:48:54;;;;;;;1.97;1.60;;;14.30;99.90;;;;;;4862942;29;20426;-57
2022/08/29 23:51:20;;;;;;;2.03;1.70;;;14.30;99.90;;;;;;4862639;29;20434;-55
2022/08/29 23:53:46;;;;;;;2.50;2.03;;;14.30;99.90;;;;;;4862425;29;20264;-55
2022/08/29 23:56:19;;;;;;;1.80;1.70;;;14.40;99.90;;;;;;4862395;29;20196;-55
2022/08/29 23:58:44;;;;;;;2.23;1.77;;;14.40;99.90;;;;;;4862589;29;20421;-54
